sensor_id;sensor_type;location;lat;lon;timestamp;pressure;altitude;pressure_sealevel;temperature;humidity
76311;BME280;65120;59.304;18.294;2023-10-19T00:00:30;101756.63;;;4.15;68.34
76311;BME280;65120;59.304;18.294;2023-10-19T00:02:59;101756.63;;;4.15;68.41
76311;BME280;65120;59.304;18.294;2023-10-19T00:05:28;101749.72;;;4.14;68.48
76311;BME280;65120;59.304;18.294;2023-10-19T00:07:57;101745.34;;;4.10;68.39
76311;BME280;65120;59.304;18.294;2023-10-19T00:10:25;101748.88;;;4.14;68.40
76311;BME280;65120;59.304;18.294;2023-10-19T00:12:55;101754.03;;;4.14;68.45
76311;BME280;65120;59.304;18.294;2023-10-19T00:15:25;101749.72;;;4.13;68.14
76311;BME280;65120;59.304;18.294;2023-10-19T00:17:57;101745.34;;;4.12;68.42
76311;BME280;65120;59.304;18.294;2023-10-19T00:20:25;101740.19;;;4.12;68.48
76311;BME280;65120;59.304;18.294;2023-10-19T00:23:04;101740.19;;;4.12;68.30
76311;BME280;65120;59.304;18.294;2023-10-19T00:25:32;101743.63;;;4.12;68.64
76311;BME280;65120;59.304;18.294;2023-10-19T00:28:00;101750.53;;;4.12;68.49
76311;BME280;65120;59.304;18.294;2023-10-19T00:30:29;101746.22;;;4.11;68.63
76311;BME280;65120;59.304;18.294;2023-10-19T00:32:58;101753.97;;;4.11;68.64
76311;BME280;65120;59.304;18.294;2023-10-19T00:35:29;101756.50;;;4.09;68.55
76311;BME280;65120;59.304;18.294;2023-10-19T00:38:01;101753.03;;;4.07;68.61
76311;BME280;65120;59.304;18.294;2023-10-19T00:40:43;101742.69;;;4.07;68.52
76311;BME280;65120;59.304;18.294;2023-10-19T00:43:13;101749.59;;;4.08;68.41
76311;BME280;65120;59.304;18.294;2023-10-19T00:45:43;101748.66;;;4.06;68.67
76311;BME280;65120;59.304;18.294;2023-10-19T00:48:13;101748.66;;;4.06;68.58
76311;BME280;65120;59.304;18.294;2023-10-19T00:50:43;101749.53;;;4.05;68.76
76311;BME280;65120;59.304;18.294;2023-10-19T00:53:13;101744.28;;;4.02;68.77
76311;BME280;65120;59.304;18.294;2023-10-19T00:55:43;101748.59;;;4.03;68.52
76311;BME280;65120;59.304;18.294;2023-10-19T00:58:10;101755.50;;;4.02;68.71
76311;BME280;65120;59.304;18.294;2023-10-19T01:00:43;101757.19;;;4.02;68.61
76311;BME280;65120;59.304;18.294;2023-10-19T01:03:11;101756.28;;;4.00;68.38
76311;BME280;65120;59.304;18.294;2023-10-19T01:05:43;101756.28;;;4.00;68.47
76311;BME280;65120;59.304;18.294;2023-10-19T01:08:14;101757.06;;;3.97;69.00
76311;BME280;65120;59.304;18.294;2023-10-19T01:10:51;101767.41;;;3.96;68.69
76311;BME280;65120;59.304;18.294;2023-10-19T01:13:19;101746.72;;;3.96;68.53
76311;BME280;65120;59.304;18.294;2023-10-19T01:15:53;101751.81;;;3.93;68.57
76311;BME280;65120;59.304;18.294;2023-10-19T01:18:21;101754.41;;;3.93;68.57
76311;BME280;65120;59.304;18.294;2023-10-19T01:20:54;101759.56;;;3.93;68.38
76311;BME280;65120;59.304;18.294;2023-10-19T01:23:23;101764.75;;;3.93;68.62
76311;BME280;65120;59.304;18.294;2023-10-19T01:25:54;101754.34;;;3.91;68.70
76311;BME280;65120;59.304;18.294;2023-10-19T01:28:34;101766.41;;;3.91;68.66
76311;BME280;65120;59.304;18.294;2023-10-19T01:31:14;101752.63;;;3.90;68.55
76311;BME280;65120;59.304;18.294;2023-10-19T01:33:42;101754.28;;;3.90;68.75
76311;BME280;65120;59.304;18.294;2023-10-19T01:36:10;101752.56;;;3.89;68.65
76311;BME280;65120;59.304;18.294;2023-10-19T01:38:39;101756.88;;;3.88;68.73
76311;BME280;65120;59.304;18.294;2023-10-19T01:41:05;101754.28;;;3.88;68.62
76311;BME280;65120;59.304;18.294;2023-10-19T01:43:39;101752.56;;;3.89;68.82
76311;BME280;65120;59.304;18.294;2023-10-19T01:46:07;101750.81;;;3.88;68.89
76311;BME280;65120;59.304;18.294;2023-10-19T01:48:37;101746.47;;;3.87;69.03
76311;BME280;65120;59.304;18.294;2023-10-19T01:51:07;101751.63;;;3.87;68.84
76311;BME280;65120;59.304;18.294;2023-10-19T01:53:36;101743.81;;;3.83;68.60
76311;BME280;65120;59.304;18.294;2023-10-19T01:56:06;101744.69;;;3.84;68.69
76311;BME280;65120;59.304;18.294;2023-10-19T01:58:35;101740.41;;;3.85;68.81
76311;BME280;65120;59.304;18.294;2023-10-19T02:01:03;101737.78;;;3.83;68.71
76311;BME280;65120;59.304;18.294;2023-10-19T02:03:34;101726.56;;;3.82;68.98
76311;BME280;65120;59.304;18.294;2023-10-19T02:06:02;101724.84;;;3.81;68.75
76311;BME280;65120;59.304;18.294;2023-10-19T02:08:36;101731.75;;;3.82;69.11
76311;BME280;65120;59.304;18.294;2023-10-19T02:11:07;101745.50;;;3.81;69.08
76311;BME280;65120;59.304;18.294;2023-10-19T02:13:42;101751.47;;;3.79;69.29
76311;BME280;65120;59.304;18.294;2023-10-19T02:16:10;101748.91;;;3.80;69.29
76311;BME280;65120;59.304;18.294;2023-10-19T02:18:36;101746.31;;;3.80;69.63
76311;BME280;65120;59.304;18.294;2023-10-19T02:21:04;101745.50;;;3.81;69.31
76311;BME280;65120;59.304;18.294;2023-10-19T02:23:31;101730.72;;;3.76;69.24
76311;BME280;65120;59.304;18.294;2023-10-19T02:25:59;101738.56;;;3.80;69.31
76311;BME280;65120;59.304;18.294;2023-10-19T02:28:26;101738.50;;;3.77;69.45
76311;BME280;65120;59.304;18.294;2023-10-19T02:30:58;101743.75;;;3.80;69.41
76311;BME280;65120;59.304;18.294;2023-10-19T02:33:24;101737.69;;;3.80;69.44
76311;BME280;65120;59.304;18.294;2023-10-19T02:35:55;101735.97;;;3.79;69.28
76311;BME280;65120;59.304;18.294;2023-10-19T02:38:22;101728.16;;;3.77;69.04
76311;BME280;65120;59.304;18.294;2023-10-19T02:40:49;101724.66;;;3.75;69.46
76311;BME280;65120;59.304;18.294;2023-10-19T02:43:15;101729.81;;;3.75;69.41
76311;BME280;65120;59.304;18.294;2023-10-19T02:45:44;101728.94;;;3.73;69.43
76311;BME280;65120;59.304;18.294;2023-10-19T02:48:13;101726.34;;;3.73;69.05
76311;BME280;65120;59.304;18.294;2023-10-19T02:50:41;101726.28;;;3.72;69.00
76311;BME280;65120;59.304;18.294;2023-10-19T02:53:07;101724.50;;;3.69;68.93
76311;BME280;65120;59.304;18.294;2023-10-19T02:55:38;101723.63;;;3.67;69.06
76311;BME280;65120;59.304;18.294;2023-10-19T02:58:05;101731.31;;;3.66;69.20
76311;BME280;65120;59.304;18.294;2023-10-19T03:00:32;101731.25;;;3.64;69.34
76311;BME280;65120;59.304;18.294;2023-10-19T03:03:01;101736.41;;;3.63;69.39
76311;BME280;65120;59.304;18.294;2023-10-19T03:05:30;101737.25;;;3.62;69.38
76311;BME280;65120;59.304;18.294;2023-10-19T03:07:56;101729.47;;;3.60;69.10
76311;BME280;65120;59.304;18.294;2023-10-19T03:10:23;101735.47;;;3.59;69.11
76311;BME280;65120;59.304;18.294;2023-10-19T03:12:49;101724.16;;;3.55;68.99
76311;BME280;65120;59.304;18.294;2023-10-19T03:15:17;101725.88;;;3.55;69.00
76311;BME280;65120;59.304;18.294;2023-10-19T03:17:46;101730.13;;;3.53;69.05
76311;BME280;65120;59.304;18.294;2023-10-19T03:20:16;101729.22;;;3.51;69.19
76311;BME280;65120;59.304;18.294;2023-10-19T03:22:43;101730.88;;;3.49;69.11
76311;BME280;65120;59.304;18.294;2023-10-19T03:25:09;101729.16;;;3.48;69.11
76311;BME280;65120;59.304;18.294;2023-10-19T03:27:54;101730.81;;;3.46;69.37
76311;BME280;65120;59.304;18.294;2023-10-19T03:30:21;101720.41;;;3.43;69.10
76311;BME280;65120;59.304;18.294;2023-10-19T03:32:50;101714.31;;;3.41;69.00
76311;BME280;65120;59.304;18.294;2023-10-19T03:35:19;101720.31;;;3.40;69.40
76311;BME280;65120;59.304;18.294;2023-10-19T03:37:46;101709.06;;;3.37;69.01
76311;BME280;65120;59.304;18.294;2023-10-19T03:40:17;101709.84;;;3.33;69.30
76311;BME280;65120;59.304;18.294;2023-10-19T03:42:52;101704.69;;;3.33;69.05
76311;BME280;65120;59.304;18.294;2023-10-19T03:45:20;101700.25;;;3.29;68.99
76311;BME280;65120;59.304;18.294;2023-10-19T03:47:49;101706.25;;;3.28;68.90
76311;BME280;65120;59.304;18.294;2023-10-19T03:50:20;101700.94;;;3.22;69.41
76311;BME280;65120;59.304;18.294;2023-10-19T03:52:47;101717.31;;;3.24;68.96
76311;BME280;65120;59.304;18.294;2023-10-19T03:55:14;101712.06;;;3.21;69.21
76311;BME280;65120;59.304;18.294;2023-10-19T03:57:44;101706.03;;;3.19;69.37
76311;BME280;65120;59.304;18.294;2023-10-19T04:00:16;101709.41;;;3.18;69.07
76311;BME280;65120;59.304;18.294;2023-10-19T04:02:44;101708.53;;;3.16;69.31
76311;BME280;65120;59.304;18.294;2023-10-19T04:05:12;101702.44;;;3.14;69.31
76311;BME280;65120;59.304;18.294;2023-10-19T04:07:47;101703.22;;;3.11;69.32
76311;BME280;65120;59.304;18.294;2023-10-19T04:10:15;101710.91;;;3.10;69.12
76311;BME280;65120;59.304;18.294;2023-10-19T04:12:56;101709.19;;;3.09;69.62
76311;BME280;65120;59.304;18.294;2023-10-19T04:15:26;101710.81;;;3.05;69.12
76311;BME280;65120;59.304;18.294;2023-10-19T04:17:54;101712.53;;;3.05;69.37
76311;BME280;65120;59.304;18.294;2023-10-19T04:20:24;101720.22;;;3.03;69.75
76311;BME280;65120;59.304;18.294;2023-10-19T04:22:57;101720.19;;;3.02;69.56
76311;BME280;65120;59.304;18.294;2023-10-19T04:25:31;101720.06;;;2.99;69.42
76311;BME280;65120;59.304;18.294;2023-10-19T04:27:58;101710.59;;;2.98;69.37
76311;BME280;65120;59.304;18.294;2023-10-19T04:30:26;101706.28;;;2.97;69.59
76311;BME280;65120;59.304;18.294;2023-10-19T04:32:53;101705.34;;;2.95;69.67
76311;BME280;65120;59.304;18.294;2023-10-19T04:35:22;101708.78;;;2.93;69.84
76311;BME280;65120;59.304;18.294;2023-10-19T04:37:50;101709.59;;;2.92;69.81
76311;BME280;65120;59.304;18.294;2023-10-19T04:40:19;101705.19;;;2.88;69.93
76311;BME280;65120;59.304;18.294;2023-10-19T04:42:46;101705.19;;;2.88;69.70
76311;BME280;65120;59.304;18.294;2023-10-19T04:45:13;101714.56;;;2.86;69.51
76311;BME280;65120;59.304;18.294;2023-10-19T04:47:40;101720.56;;;2.85;69.78
76311;BME280;65120;59.304;18.294;2023-10-19T04:50:08;101723.09;;;2.84;69.45
76311;BME280;65120;59.304;18.294;2023-10-19T04:52:36;101729.09;;;2.83;69.96
76311;BME280;65120;59.304;18.294;2023-10-19T04:55:04;101723.00;;;2.81;70.22
76311;BME280;65120;59.304;18.294;2023-10-19T04:57:32;101728.16;;;2.79;69.61
76311;BME280;65120;59.304;18.294;2023-10-19T04:59:59;101722.06;;;2.77;70.01
76311;BME280;65120;59.304;18.294;2023-10-19T05:02:26;101722.06;;;2.77;70.35
76311;BME280;65120;59.304;18.294;2023-10-19T05:04:53;101722.06;;;2.77;69.87
76311;BME280;65120;59.304;18.294;2023-10-19T05:07:20;101726.34;;;2.77;70.24
76311;BME280;65120;59.304;18.294;2023-10-19T05:09:47;101725.50;;;2.78;70.43
76311;BME280;65120;59.304;18.294;2023-10-19T05:12:14;101723.72;;;2.75;70.10
76311;BME280;65120;59.304;18.294;2023-10-19T05:14:43;101718.56;;;2.75;70.45
76311;BME280;65120;59.304;18.294;2023-10-19T05:17:11;101707.31;;;2.73;70.14
76311;BME280;65120;59.304;18.294;2023-10-19T05:19:38;101703.91;;;2.74;70.56
76311;BME280;65120;59.304;18.294;2023-10-19T05:22:07;101702.16;;;2.73;71.01
76311;BME280;65120;59.304;18.294;2023-10-19T05:24:35;101694.41;;;2.73;70.73
76311;BME280;65120;59.304;18.294;2023-10-19T05:27:03;101691.81;;;2.73;70.85
76311;BME280;65120;59.304;18.294;2023-10-19T05:29:31;101694.47;;;2.75;70.82
76311;BME280;65120;59.304;18.294;2023-10-19T05:32:00;101707.38;;;2.75;70.85
76311;BME280;65120;59.304;18.294;2023-10-19T05:34:29;101702.22;;;2.75;70.55
76311;BME280;65120;59.304;18.294;2023-10-19T05:36:57;101706.50;;;2.74;70.54
76311;BME280;65120;59.304;18.294;2023-10-19T05:39:27;101702.16;;;2.73;70.76
76311;BME280;65120;59.304;18.294;2023-10-19T05:41:56;101697.88;;;2.74;70.72
76311;BME280;65120;59.304;18.294;2023-10-19T05:44:26;101707.31;;;2.73;70.69
76311;BME280;65120;59.304;18.294;2023-10-19T05:46:52;101699.53;;;2.72;70.31
76311;BME280;65120;59.304;18.294;2023-10-19T05:49:22;101699.47;;;2.70;70.41
76311;BME280;65120;59.304;18.294;2023-10-19T05:51:49;101704.66;;;2.70;70.25
76311;BME280;65120;59.304;18.294;2023-10-19T05:54:16;101696.00;;;2.68;70.25
76311;BME280;65120;59.304;18.294;2023-10-19T05:56:43;101701.97;;;2.67;70.47
76311;BME280;65120;59.304;18.294;2023-10-19T05:59:11;101697.66;;;2.66;70.28
76311;BME280;65120;59.304;18.294;2023-10-19T06:01:38;101693.34;;;2.65;70.39
76311;BME280;65120;59.304;18.294;2023-10-19T06:04:06;101699.31;;;2.64;70.24
76311;BME280;65120;59.304;18.294;2023-10-19T06:06:35;101704.47;;;2.64;70.72
76311;BME280;65120;59.304;18.294;2023-10-19T06:09:02;101716.47;;;2.62;70.67
76311;BME280;65120;59.304;18.294;2023-10-19T06:11:30;101703.56;;;2.62;70.54
76311;BME280;65120;59.304;18.294;2023-10-19T06:13:58;101706.16;;;2.62;70.70
76311;BME280;65120;59.304;18.294;2023-10-19T06:16:25;101703.50;;;2.60;70.72
76311;BME280;65120;59.304;18.294;2023-10-19T06:18:53;101698.31;;;2.59;70.52
76311;BME280;65120;59.304;18.294;2023-10-19T06:21:20;101704.34;;;2.59;70.87
76311;BME280;65120;59.304;18.294;2023-10-19T06:23:49;101703.47;;;2.59;70.80
76311;BME280;65120;59.304;18.294;2023-10-19T06:26:18;101716.34;;;2.59;70.82
76311;BME280;65120;59.304;18.294;2023-10-19T06:28:45;101708.63;;;2.59;70.96
76311;BME280;65120;59.304;18.294;2023-10-19T06:31:12;101715.47;;;2.58;70.95
76311;BME280;65120;59.304;18.294;2023-10-19T06:33:40;101724.09;;;2.59;70.92
76311;BME280;65120;59.304;18.294;2023-10-19T06:36:07;101716.34;;;2.59;70.84
76311;BME280;65120;59.304;18.294;2023-10-19T06:38:34;101713.75;;;2.57;70.97
76311;BME280;65120;59.304;18.294;2023-10-19T06:41:10;101720.63;;;2.57;71.01
76311;BME280;65120;59.304;18.294;2023-10-19T06:43:37;101728.34;;;2.57;70.92
76311;BME280;65120;59.304;18.294;2023-10-19T06:46:04;101696.22;;;2.45;71.10
76311;BME280;65120;59.304;18.294;2023-10-19T06:48:31;101716.28;;;2.56;71.18
76311;BME280;65120;59.304;18.294;2023-10-19T06:50:58;101705.00;;;2.52;70.73
76311;BME280;65120;59.304;18.294;2023-10-19T06:53:26;101711.94;;;2.55;71.18
76311;BME280;65120;59.304;18.294;2023-10-19T06:55:52;101709.38;;;2.55;71.17
76311;BME280;65120;59.304;18.294;2023-10-19T06:58:21;101705.09;;;2.55;70.92
76311;BME280;65120;59.304;18.294;2023-10-19T07:00:52;101709.38;;;2.55;70.99
76311;BME280;65120;59.304;18.294;2023-10-19T07:03:25;101695.53;;;2.53;70.72
76311;BME280;65120;59.304;18.294;2023-10-19T07:05:54;101702.50;;;2.55;71.04
76311;BME280;65120;59.304;18.294;2023-10-19T07:08:22;101692.16;;;2.54;70.88
76311;BME280;65120;59.304;18.294;2023-10-19T07:10:49;101691.31;;;2.55;71.61
76311;BME280;65120;59.304;18.294;2023-10-19T07:13:16;101684.41;;;2.54;71.36
76311;BME280;65120;59.304;18.294;2023-10-19T07:15:48;101688.81;;;2.58;71.56
76311;BME280;65120;59.304;18.294;2023-10-19T07:18:17;101687.13;;;2.58;71.33
76311;BME280;65120;59.304;18.294;2023-10-19T07:20:44;101694.03;;;2.59;71.71
76311;BME280;65120;59.304;18.294;2023-10-19T07:23:14;101684.63;;;2.61;71.60
76311;BME280;65120;59.304;18.294;2023-10-19T07:25:45;101690.69;;;2.62;71.29
76311;BME280;65120;59.304;18.294;2023-10-19T07:28:13;101688.91;;;2.61;71.29
76311;BME280;65120;59.304;18.294;2023-10-19T07:30:41;101689.00;;;2.64;71.59
76311;BME280;65120;59.304;18.294;2023-10-19T07:33:11;101697.66;;;2.66;71.66
76311;BME280;65120;59.304;18.294;2023-10-19T07:35:43;101701.16;;;2.68;71.83
76311;BME280;65120;59.304;18.294;2023-10-19T07:38:12;101696.03;;;2.69;71.91
76311;BME280;65120;59.304;18.294;2023-10-19T07:40:39;101682.19;;;2.66;72.03
76311;BME280;65120;59.304;18.294;2023-10-19T07:43:06;101688.38;;;2.73;71.97
76311;BME280;65120;59.304;18.294;2023-10-19T07:45:33;101682.44;;;2.75;71.99
76311;BME280;65120;59.304;18.294;2023-10-19T07:48:02;101676.41;;;2.75;72.03
76311;BME280;65120;59.304;18.294;2023-10-19T07:50:34;101680.88;;;2.80;72.18
76311;BME280;65120;59.304;18.294;2023-10-19T07:53:02;101686.09;;;2.83;72.20
76311;BME280;65120;59.304;18.294;2023-10-19T07:55:30;101683.59;;;2.86;71.93
76311;BME280;65120;59.304;18.294;2023-10-19T07:57:57;101687.13;;;2.88;71.91
76311;BME280;65120;59.304;18.294;2023-10-19T08:00:25;101677.72;;;2.90;72.05
76311;BME280;65120;59.304;18.294;2023-10-19T08:02:54;101682.97;;;2.93;72.38
76311;BME280;65120;59.304;18.294;2023-10-19T08:05:22;101678.69;;;2.96;72.11
76311;BME280;65120;59.304;18.294;2023-10-19T08:07:50;101675.31;;;2.98;72.43
76311;BME280;65120;59.304;18.294;2023-10-19T08:10:19;101657.16;;;2.93;72.42
76311;BME280;65120;59.304;18.294;2023-10-19T08:12:47;101672.00;;;3.02;71.93
76311;BME280;65120;59.304;18.294;2023-10-19T08:15:16;101668.63;;;3.05;71.94
76311;BME280;65120;59.304;18.294;2023-10-19T08:17:45;101670.41;;;3.07;72.11
76311;BME280;65120;59.304;18.294;2023-10-19T08:20:14;101667.94;;;3.10;72.06
76311;BME280;65120;59.304;18.294;2023-10-19T08:22:48;101669.59;;;3.10;72.60
76311;BME280;65120;59.304;18.294;2023-10-19T08:25:16;101675.03;;;3.19;72.42
76311;BME280;65120;59.304;18.294;2023-10-19T08:27:44;101682.88;;;3.22;72.27
76311;BME280;65120;59.304;18.294;2023-10-19T08:30:13;101688.09;;;3.25;72.41
76311;BME280;65120;59.304;18.294;2023-10-19T08:32:39;101688.19;;;3.28;72.34
76311;BME280;65120;59.304;18.294;2023-10-19T08:35:07;101686.47;;;3.29;72.34
76311;BME280;65120;59.304;18.294;2023-10-19T08:37:36;101687.41;;;3.32;72.33
76311;BME280;65120;59.304;18.294;2023-10-19T08:40:06;101689.19;;;3.35;72.52
76311;BME280;65120;59.304;18.294;2023-10-19T08:42:34;101697.09;;;3.40;72.19
76311;BME280;65120;59.304;18.294;2023-10-19T08:45:02;101700.59;;;3.43;72.23
76311;BME280;65120;59.304;18.294;2023-10-19T08:47:34;101682.41;;;3.38;72.33
76311;BME280;65120;59.304;18.294;2023-10-19T08:50:02;101697.28;;;3.47;72.28
76311;BME280;65120;59.304;18.294;2023-10-19T08:52:30;101704.25;;;3.51;72.21
76311;BME280;65120;59.304;18.294;2023-10-19T08:54:58;101692.28;;;3.53;72.24
76311;BME280;65120;59.304;18.294;2023-10-19T08:57:25;101688.03;;;3.57;72.10
76311;BME280;65120;59.304;18.294;2023-10-19T08:59:55;101681.22;;;3.59;71.94
76311;BME280;65120;59.304;18.294;2023-10-19T09:02:24;101682.16;;;3.63;72.27
76311;BME280;65120;59.304;18.294;2023-10-19T09:04:52;101681.38;;;3.67;72.13
76311;BME280;65120;59.304;18.294;2023-10-19T09:07:19;101672.84;;;3.69;71.87
76311;BME280;65120;59.304;18.294;2023-10-19T09:09:47;101685.00;;;3.73;71.88
76311;BME280;65120;59.304;18.294;2023-10-19T09:12:14;101675.56;;;3.75;71.86
76311;BME280;65120;59.304;18.294;2023-10-19T09:14:41;101695.41;;;3.76;71.86
76311;BME280;65120;59.304;18.294;2023-10-19T09:17:12;101687.59;;;3.75;71.42
76311;BME280;65120;59.304;18.294;2023-10-19T09:19:41;101689.28;;;3.73;71.35
76311;BME280;65120;59.304;18.294;2023-10-19T09:22:09;101690.19;;;3.73;71.24
76311;BME280;65120;59.304;18.294;2023-10-19T09:24:44;101687.66;;;3.76;71.19
76311;BME280;65120;59.304;18.294;2023-10-19T09:27:11;101685.06;;;3.76;71.12
76311;BME280;65120;59.304;18.294;2023-10-19T09:29:39;101690.25;;;3.76;71.36
76311;BME280;65120;59.304;18.294;2023-10-19T09:32:07;101686.81;;;3.77;71.31
76311;BME280;65120;59.304;18.294;2023-10-19T09:34:36;101692.91;;;3.81;71.22
76311;BME280;65120;59.304;18.294;2023-10-19T09:37:03;101696.44;;;3.83;71.11
76311;BME280;65120;59.304;18.294;2023-10-19T09:39:31;101692.19;;;3.87;70.73
76311;BME280;65120;59.304;18.294;2023-10-19T09:42:02;101696.53;;;3.88;70.72
76311;BME280;65120;59.304;18.294;2023-10-19T09:44:41;101691.38;;;3.88;70.68
76311;BME280;65120;59.304;18.294;2023-10-19T09:47:10;101692.38;;;3.93;70.70
76311;BME280;65120;59.304;18.294;2023-10-19T09:49:41;101688.94;;;3.94;70.45
76311;BME280;65120;59.304;18.294;2023-10-19T09:52:09;101689.88;;;3.97;70.18
76311;BME280;65120;59.304;18.294;2023-10-19T09:54:49;101687.34;;;4.00;69.93
76311;BME280;65120;59.304;18.294;2023-10-19T09:57:22;101689.94;;;4.00;69.40
76311;BME280;65120;59.304;18.294;2023-10-19T10:00:00;101683.94;;;4.01;69.05
76311;BME280;65120;59.304;18.294;2023-10-19T10:02:34;101690.81;;;4.01;68.55
76311;BME280;65120;59.304;18.294;2023-10-19T10:05:04;101677.88;;;4.01;67.89
76311;BME280;65120;59.304;18.294;2023-10-19T10:07:31;101689.13;;;4.03;68.16
76311;BME280;65120;59.304;18.294;2023-10-19T10:09:58;101685.81;;;4.07;68.14
76311;BME280;65120;59.304;18.294;2023-10-19T10:12:25;101694.44;;;4.09;67.78
76311;BME280;65120;59.304;18.294;2023-10-19T10:14:59;101688.47;;;4.12;66.37
76311;BME280;65120;59.304;18.294;2023-10-19T10:17:27;101688.47;;;4.12;65.74
76311;BME280;65120;59.304;18.294;2023-10-19T10:19:55;101683.13;;;4.04;65.47
76311;BME280;65120;59.304;18.294;2023-10-19T10:22:26;101688.47;;;4.12;65.30
76311;BME280;65120;59.304;18.294;2023-10-19T10:24:54;101697.16;;;4.14;64.18
76311;BME280;65120;59.304;18.294;2023-10-19T10:27:22;101691.97;;;4.14;64.27
76311;BME280;65120;59.304;18.294;2023-10-19T10:29:56;101693.72;;;4.15;64.61
76311;BME280;65120;59.304;18.294;2023-10-19T10:32:44;101704.13;;;4.18;64.59
76311;BME280;65120;59.304;18.294;2023-10-19T10:38:13;101700.66;;;4.16;62.96
76311;BME280;65120;59.304;18.294;2023-10-19T10:40:42;101693.72;;;4.15;63.14
76311;BME280;65120;59.304;18.294;2023-10-19T10:43:09;101697.16;;;4.15;63.03
76311;BME280;65120;59.304;18.294;2023-10-19T10:45:37;101699.78;;;4.17;63.05
76311;BME280;65120;59.304;18.294;2023-10-19T10:48:04;101705.88;;;4.19;62.71
76311;BME280;65120;59.304;18.294;2023-10-19T10:50:37;101697.28;;;4.20;62.47
76311;BME280;65120;59.304;18.294;2023-10-19T10:53:04;101691.25;;;4.19;62.39
76311;BME280;65120;59.304;18.294;2023-10-19T10:55:33;101701.59;;;4.21;62.35
76311;BME280;65120;59.304;18.294;2023-10-19T10:58:00;101701.66;;;4.22;63.04
76311;BME280;65120;59.304;18.294;2023-10-19T11:00:26;101705.09;;;4.21;62.99
76311;BME280;65120;59.304;18.294;2023-10-19T11:03:01;101709.34;;;4.21;63.02
76311;BME280;65120;59.304;18.294;2023-10-19T11:05:29;101699.88;;;4.20;63.42
76311;BME280;65120;59.304;18.294;2023-10-19T11:08:05;101699.88;;;4.20;63.36
76311;BME280;65120;59.304;18.294;2023-10-19T11:10:34;101694.66;;;4.18;62.77
76311;BME280;65120;59.304;18.294;2023-10-19T11:13:02;101702.41;;;4.18;63.02
76311;BME280;65120;59.304;18.294;2023-10-19T11:15:29;101704.91;;;4.15;62.89
76311;BME280;65120;59.304;18.294;2023-10-19T11:17:56;101698.06;;;4.17;63.04
76311;BME280;65120;59.304;18.294;2023-10-19T11:20:23;101705.00;;;4.18;62.96
76311;BME280;65120;59.304;18.294;2023-10-19T11:22:53;101699.81;;;4.18;62.30
76311;BME280;65120;59.304;18.294;2023-10-19T11:25:22;101706.72;;;4.18;62.45
76311;BME280;65120;59.304;18.294;2023-10-19T11:27:51;101698.88;;;4.15;61.71
76311;BME280;65120;59.304;18.294;2023-10-19T11:30:23;101693.69;;;4.13;61.85
76311;BME280;65120;59.304;18.294;2023-10-19T11:32:51;101692.78;;;4.11;61.56
76311;BME280;65120;59.304;18.294;2023-10-19T11:35:22;101689.28;;;4.09;61.36
76311;BME280;65120;59.304;18.294;2023-10-19T11:37:50;101700.53;;;4.11;61.52
76311;BME280;65120;59.304;18.294;2023-10-19T11:40:18;101690.97;;;4.07;61.24
76311;BME280;65120;59.304;18.294;2023-10-19T11:42:46;101696.22;;;4.10;61.21
76311;BME280;65120;59.304;18.294;2023-10-19T11:45:14;101691.00;;;4.09;60.64
76311;BME280;65120;59.304;18.294;2023-10-19T11:47:42;101693.56;;;4.07;61.21
76311;BME280;65120;59.304;18.294;2023-10-19T11:50:10;101663.94;;;3.93;60.88
76311;BME280;65120;59.304;18.294;2023-10-19T11:52:41;101684.03;;;4.06;60.80
76311;BME280;65120;59.304;18.294;2023-10-19T11:55:08;101698.69;;;4.05;60.75
76311;BME280;65120;59.304;18.294;2023-10-19T11:57:35;101697.00;;;4.08;60.53
76311;BME280;65120;59.304;18.294;2023-10-19T12:00:02;101693.56;;;4.09;60.44
76311;BME280;65120;59.304;18.294;2023-10-19T12:02:35;101699.63;;;4.09;60.61
76311;BME280;65120;59.304;18.294;2023-10-19T12:05:05;101687.53;;;4.08;60.57
76311;BME280;65120;59.304;18.294;2023-10-19T12:07:35;101697.03;;;4.09;60.37
76311;BME280;65120;59.304;18.294;2023-10-19T12:10:03;101700.47;;;4.08;60.13
76311;BME280;65120;59.304;18.294;2023-10-19T12:12:30;101692.72;;;4.08;60.25
76311;BME280;65120;59.304;18.294;2023-10-19T12:14:58;101674.53;;;4.05;60.26
76311;BME280;65120;59.304;18.294;2023-10-19T12:17:28;101682.31;;;4.05;60.54
76311;BME280;65120;59.304;18.294;2023-10-19T12:19:57;101674.53;;;4.05;60.46
76311;BME280;65120;59.304;18.294;2023-10-19T12:22:24;101671.09;;;4.04;60.32
76311;BME280;65120;59.304;18.294;2023-10-19T12:24:53;101672.88;;;4.07;60.03
76311;BME280;65120;59.304;18.294;2023-10-19T12:27:22;101673.69;;;4.06;59.78
76311;BME280;65120;59.304;18.294;2023-10-19T12:29:50;101679.72;;;4.06;60.04
76311;BME280;65120;59.304;18.294;2023-10-19T12:32:17;101676.25;;;4.04;59.73
76311;BME280;65120;59.304;18.294;2023-10-19T12:34:44;101672.78;;;4.04;59.92
76311;BME280;65120;59.304;18.294;2023-10-19T12:37:13;101663.28;;;4.03;59.86
76311;BME280;65120;59.304;18.294;2023-10-19T12:39:39;101668.53;;;4.06;60.19
76311;BME280;65120;59.304;18.294;2023-10-19T12:42:10;101669.44;;;4.08;59.79
76311;BME280;65120;59.304;18.294;2023-10-19T12:44:39;101668.59;;;4.09;60.04
76311;BME280;65120;59.304;18.294;2023-10-19T12:47:07;101666.00;;;4.09;60.31
76311;BME280;65120;59.304;18.294;2023-10-19T12:49:38;101660.00;;;4.10;59.98
76311;BME280;65120;59.304;18.294;2023-10-19T12:52:06;101658.25;;;4.09;59.77
76311;BME280;65120;59.304;18.294;2023-10-19T12:54:35;101658.19;;;4.06;59.41
76311;BME280;65120;59.304;18.294;2023-10-19T12:57:03;101659.84;;;4.04;59.42
76311;BME280;65120;59.304;18.294;2023-10-19T12:59:32;101659.84;;;4.02;59.31
76311;BME280;65120;59.304;18.294;2023-10-19T13:01:59;101666.72;;;4.02;59.20